Terminal Aerodrome Forecast
Issued by NWS Sterling, VA

Current Version | Previous Version | Text Only | Print | Product List | Glossary Off
Versions: 1 2 3 4 5 6 7 8 9 10 11 12 13 14 15 16 17 18 19 20 21 22 23

000
FTUS41 KLWX 162330
TAFDCA
TAF
KDCA 162330Z 1700/1724 31011G18KT P6SM SKC
     FM170100 29009KT P6SM SKC
     FM171700 23005KT P6SM SCT060
     FM172300 16004KT P6SM FEW200=

USA.gov is the U.S. government's official web portal to all federal, state and local government web resources and services.